createdAt,value
2018-04-25T00:03:29.953Z,40.03
2018-04-25T00:08:32.017Z,38.10
2018-04-25T00:13:33.393Z,38.43
2018-04-25T00:18:34.772Z,39.03
2018-04-25T00:23:36.130Z,42.20
2018-04-25T00:28:38.193Z,40.50
2018-04-25T00:33:39.558Z,40.20
2018-04-25T00:38:40.863Z,36.97
2018-04-25T00:43:42.181Z,37.37
2018-04-25T00:48:43.534Z,31.23
2018-04-25T00:53:44.890Z,26.27
2018-04-25T00:58:46.978Z,29.37
2018-04-25T01:03:48.387Z,32.57
2018-04-25T01:08:50.483Z,32.50
2018-04-25T01:13:51.814Z,30.93
2018-04-25T01:18:53.162Z,27.90
2018-04-25T01:23:54.509Z,30.50
2018-04-25T01:28:55.934Z,32.77
2018-04-25T01:33:58.073Z,31.50
2018-04-25T01:39:15.098Z,34.10
2018-04-25T01:44:30.258Z,36.47
2018-04-25T01:49:36.547Z,33.23
2018-04-25T01:54:57.087Z,36.63
2018-04-25T02:00:17.666Z,36.60
2018-04-25T02:05:18.994Z,35.37
2018-04-25T02:10:20.294Z,38.70
2018-04-25T02:15:21.619Z,31.20
2018-04-25T02:20:22.959Z,32.20
2018-04-25T02:25:24.293Z,30.43
2018-04-25T02:30:26.105Z,39.80
2018-04-25T02:35:27.455Z,30.53
2018-04-25T02:40:28.783Z,29.03
2018-04-25T02:45:30.102Z,27.20
2018-04-25T02:50:31.466Z,28.17
2018-04-25T02:55:32.782Z,25.57
2018-04-25T03:00:34.102Z,24.47
2018-04-25T03:05:35.425Z,28.30
2018-04-25T03:10:36.731Z,27.80
2018-04-25T03:15:38.089Z,22.23
2018-04-25T03:20:40.167Z,20.50
2018-04-25T03:25:41.490Z,19.83
2018-04-25T03:30:42.824Z,20.63
2018-04-25T03:35:44.129Z,21.37
2018-04-25T03:40:46.404Z,23.53
2018-04-25T03:45:47.791Z,19.23
2018-04-25T03:50:49.104Z,23.27
2018-04-25T03:55:50.454Z,21.93
2018-04-25T04:00:51.774Z,21.03
2018-04-25T04:05:53.102Z,20.53
2018-04-25T04:10:55.404Z,17.73
2018-04-25T04:15:56.819Z,19.17
2018-04-25T04:20:58.880Z,18.80
2018-04-25T04:26:00.270Z,13.80
2018-04-25T04:31:01.675Z,23.53
2018-04-25T04:36:03.013Z,17.80
2018-04-25T04:41:04.317Z,17.27
2018-04-25T04:46:05.630Z,20.20
2018-04-25T04:51:06.973Z,18.17
2018-04-25T04:56:09.026Z,14.53
2018-04-25T05:01:10.364Z,13.90
2018-04-25T05:06:12.425Z,13.70
2018-04-25T05:11:13.795Z,14.43
2018-04-25T05:16:15.201Z,15.77
2018-04-25T05:21:16.534Z,13.30
2018-04-25T05:26:18.586Z,14.77
2018-04-25T05:31:19.908Z,11.90
2018-04-25T05:36:21.250Z,14.43
2018-04-25T05:41:22.550Z,11.70
2018-04-25T05:46:23.875Z,7.83
2018-04-25T05:51:25.321Z,11.63
2018-04-25T05:56:26.668Z,10.13
2018-04-25T06:01:28.754Z,7.47
2018-04-25T06:06:30.066Z,9.80
2018-04-25T06:11:31.428Z,9.90
2018-04-25T06:16:32.742Z,16.50
2018-04-25T06:21:40.999Z,8.13
2018-04-25T06:26:42.323Z,6.90
2018-04-25T06:31:43.662Z,5.13
2018-04-25T06:36:45.026Z,7.07
2018-04-25T06:41:46.329Z,6.93
2018-04-25T06:46:47.723Z,9.57
2018-04-25T06:51:49.057Z,5.77
2018-04-25T06:56:50.573Z,3.73
2018-04-25T07:01:51.810Z,3.03
2018-04-25T07:06:53.163Z,6.20
2018-04-25T07:11:54.479Z,4.00
2018-04-25T07:16:55.783Z,3.93
2018-04-25T07:21:57.114Z,2.37
2018-04-25T07:26:58.453Z,2.80
2018-04-25T07:31:59.798Z,2.60
2018-04-25T07:37:01.142Z,2.67
2018-04-25T07:42:02.484Z,3.07
2018-04-25T07:47:03.842Z,1.90
2018-04-25T07:52:05.208Z,2.90
2018-04-25T07:57:06.538Z,1.67
2018-04-25T08:02:07.873Z,2.03
2018-04-25T08:07:09.187Z,1.80
2018-04-25T08:12:29.773Z,3.53
2018-04-25T08:17:49.495Z,5.90
2018-04-25T08:22:51.673Z,2.10
2018-04-25T08:27:53.725Z,2.77
2018-04-25T08:32:55.045Z,4.20
2018-04-25T08:37:56.354Z,2.60
2018-04-25T08:42:58.406Z,2.13
2018-04-25T08:47:59.717Z,2.20
2018-04-25T08:53:08.070Z,3.90
2018-04-25T08:58:09.404Z,2.60
2018-04-25T09:03:10.718Z,2.27
2018-04-25T09:08:12.043Z,2.50
2018-04-25T09:13:13.476Z,2.53
2018-04-25T09:18:15.618Z,1.70
2018-04-25T09:23:16.930Z,2.87
2018-04-25T09:28:18.259Z,2.63
2018-04-25T09:33:19.570Z,0.87
2018-04-25T09:38:20.910Z,0.80
2018-04-25T09:43:22.226Z,4.03
2018-04-25T09:48:23.547Z,1.77
2018-04-25T09:53:24.882Z,1.20
2018-04-25T09:58:26.196Z,1.33
2018-04-25T10:03:27.534Z,0.80
2018-04-25T10:08:28.909Z,1.20
2018-04-25T10:13:30.242Z,2.40
2018-04-25T10:18:31.575Z,2.97
2018-04-25T10:23:32.890Z,2.47
2018-04-25T10:28:34.209Z,2.90
2018-04-25T10:33:35.534Z,1.10
2018-04-25T10:38:36.838Z,0.77
2018-04-25T10:43:38.137Z,1.00
2018-04-25T10:48:39.458Z,0.70
2018-04-25T10:53:40.882Z,1.83
2018-04-25T10:58:42.232Z,0.73
2018-04-25T11:03:43.622Z,1.30
2018-04-25T11:08:44.973Z,0.70
2018-04-25T11:13:50.682Z,0.70
2018-04-25T11:18:52.080Z,1.70
2018-04-25T11:23:53.437Z,1.07
2018-04-25T11:28:54.813Z,0.80
2018-04-25T11:33:56.186Z,1.13
2018-04-25T11:38:58.267Z,2.20
2018-04-25T11:43:59.601Z,1.20
2018-04-25T11:49:00.939Z,0.93
2018-04-25T11:54:02.309Z,1.40
2018-04-25T11:59:03.647Z,2.20
2018-04-25T12:04:05.705Z,0.87
2018-04-25T12:09:14.089Z,1.37
2018-04-25T12:14:15.480Z,2.50
2018-04-25T12:19:16.832Z,2.47
2018-04-25T12:24:18.158Z,0.80
2018-04-25T12:29:19.485Z,12.73
2018-04-25T12:34:21.924Z,2.60
2018-04-25T12:39:23.483Z,1.10
2018-04-25T12:44:25.527Z,6.03
2018-04-25T12:49:26.831Z,1.10
2018-04-25T12:54:28.183Z,1.60
2018-04-25T12:59:30.237Z,1.00
2018-04-25T13:04:31.594Z,2.50
2018-04-25T13:09:32.929Z,1.63
2018-04-25T13:14:41.326Z,4.77
2018-04-25T13:19:43.446Z,2.10
2018-04-25T13:24:45.565Z,3.73
2018-04-25T13:29:46.919Z,3.13
2018-04-25T13:34:48.246Z,3.33
2018-04-25T13:39:49.579Z,1.73
2018-04-25T13:44:50.919Z,3.57
2018-04-25T13:49:52.997Z,1.97
2018-04-25T13:54:54.430Z,1.77
2018-04-25T13:59:55.849Z,1.83
2018-04-25T14:04:57.203Z,2.27
2018-04-25T14:09:59.002Z,4.50
2018-04-25T14:15:00.370Z,1.90
2018-04-25T14:20:02.521Z,1.20
2018-04-25T14:25:03.879Z,2.20
2018-04-25T14:30:06.050Z,6.97
2018-04-25T14:35:08.328Z,3.63
2018-04-25T14:40:09.647Z,2.97
2018-04-25T14:45:11.003Z,2.63
2018-04-25T14:50:12.354Z,2.33
2018-04-25T14:55:14.448Z,3.00
2018-04-25T15:00:15.810Z,2.67
2018-04-25T15:05:17.242Z,2.20
2018-04-25T15:10:18.567Z,2.13
2018-04-25T15:15:19.912Z,2.13
2018-04-25T15:20:21.269Z,2.70
2018-04-25T15:25:22.656Z,2.80
2018-04-25T15:30:24.002Z,2.37
2018-04-25T15:35:25.358Z,2.70
2018-04-25T15:40:26.697Z,7.10
2018-04-25T15:45:28.017Z,4.60
2018-04-25T15:50:30.740Z,5.20
2018-04-25T15:55:32.239Z,3.50
2018-04-25T16:00:33.586Z,5.10
2018-04-25T16:05:36.589Z,5.93
2018-04-25T16:10:38.041Z,4.60
2018-04-25T16:15:39.417Z,4.00
2018-04-25T16:20:40.834Z,5.47
2018-04-25T16:25:42.512Z,3.47
2018-04-25T16:30:43.998Z,6.20
2018-04-25T16:35:45.404Z,5.80
2018-04-25T16:40:47.611Z,3.90
2018-04-25T16:45:49.700Z,7.57
2018-04-25T16:50:51.909Z,4.67
2018-04-25T16:55:53.748Z,5.70
2018-04-25T17:00:55.106Z,4.03
2018-04-25T17:05:56.498Z,5.10
2018-04-25T17:10:57.853Z,5.33
2018-04-25T17:15:59.169Z,6.90
2018-04-25T17:21:01.255Z,5.20
2018-04-25T17:26:02.694Z,2.73
2018-04-25T17:31:04.029Z,3.17
2018-04-25T17:36:05.345Z,2.47
2018-04-25T17:41:06.661Z,2.57
2018-04-25T17:46:08.041Z,4.20
2018-04-25T17:51:09.370Z,2.17
2018-04-25T17:56:10.734Z,3.80
2018-04-25T18:01:12.058Z,2.40
2018-04-25T18:06:13.402Z,2.10
2018-04-25T18:11:15.032Z,8.03
2018-04-25T18:16:16.342Z,4.40
2018-04-25T18:21:17.661Z,2.17
2018-04-25T18:26:19.710Z,1.97
2018-04-25T18:31:21.027Z,2.23
2018-04-25T18:36:22.333Z,2.67
2018-04-25T18:41:24.553Z,4.80
2018-04-25T18:46:27.220Z,3.07
2018-04-25T18:51:28.614Z,2.53
2018-04-25T18:56:29.967Z,3.20
2018-04-25T19:01:31.323Z,5.23
2018-04-25T19:06:32.763Z,3.13
2018-04-25T19:11:34.130Z,4.50
2018-04-25T19:16:36.204Z,4.07
2018-04-25T19:21:37.575Z,3.23
2018-04-25T19:26:38.895Z,4.43
2018-04-25T19:31:40.258Z,7.73
2018-04-25T19:36:41.664Z,12.90
2018-04-25T19:41:43.022Z,22.50
2018-04-25T19:46:44.503Z,19.97
2018-04-25T19:51:45.841Z,10.50
2018-04-25T19:56:47.201Z,12.90
2018-04-25T20:01:48.530Z,4.50
2018-04-25T20:06:49.861Z,5.13
2018-04-25T20:11:51.198Z,6.70
2018-04-25T20:16:52.515Z,4.67
2018-04-25T20:21:54.579Z,5.37
2018-04-25T20:26:55.987Z,5.30
2018-04-25T20:31:57.314Z,8.93
2018-04-25T20:36:58.650Z,12.77
2018-04-25T20:41:59.977Z,11.50
2018-04-25T20:47:02.026Z,9.37
2018-04-25T20:52:03.355Z,6.40
2018-04-25T20:57:04.698Z,6.40
2018-04-25T21:02:06.032Z,7.80
2018-04-25T21:07:07.350Z,4.50
2018-04-25T21:12:08.673Z,4.53
2018-04-25T21:17:09.978Z,6.07
2018-04-25T21:22:11.289Z,6.13
2018-04-25T21:27:12.641Z,7.13
2018-04-25T21:32:13.971Z,14.90
2018-04-25T21:37:15.278Z,8.53
2018-04-25T21:42:17.337Z,5.40
2018-04-25T21:47:18.659Z,7.20
2018-04-25T21:52:20.732Z,4.93
2018-04-25T21:57:22.140Z,8.07
2018-04-25T22:02:23.428Z,8.23
2018-04-25T22:07:24.735Z,9.60
2018-04-25T22:12:26.806Z,8.83
2018-04-25T22:17:28.141Z,13.43
2018-04-25T22:22:30.182Z,10.10
2018-04-25T22:27:31.510Z,10.97
2018-04-25T22:32:32.832Z,10.73
2018-04-25T22:37:34.914Z,10.23
2018-04-25T22:42:36.273Z,8.13
2018-04-25T22:47:37.597Z,8.13
2018-04-25T22:52:39.695Z,10.10
2018-04-25T22:57:41.080Z,13.43
2018-04-25T23:02:42.438Z,9.87
2018-04-25T23:07:43.801Z,9.23
2018-04-25T23:12:45.127Z,10.93
2018-04-25T23:17:46.465Z,8.40
2018-04-25T23:22:47.767Z,8.00
2018-04-25T23:27:49.088Z,8.93
2018-04-25T23:32:50.397Z,7.00
2018-04-25T23:37:51.703Z,7.10
2018-04-25T23:42:53.027Z,10.40
2018-04-25T23:47:54.348Z,10.70
2018-04-25T23:52:55.715Z,5.90
2018-04-25T23:57:57.037Z,5.63
